Jack Robertson — WDE5993 — position and weather

sailwx.info

Track history (hours):
 
Tides and Currents Weather Stations Pressure Air Temp Water Temp Dewpoint Dewpoint Depression Visibility Wind Speed Wind Dir Waves Ship Positions

Oceanographic research ship Jack Robertson (United States)

Owner: University of Washington Applied Physics Laboratory, Seattle, WA. More information available from US FCC via Universal Licensing System and Coast Guard Vessel Documentation Center.

Last reported at 2017-Aug-17 01:30 UTC. Time now 2017-Aug-17 01:38 UTC.
Position N 47°24' W 123°08'.

; draft 1.7 m.

Type: Other ship. MMSI: 367374350.

Date/timePositionNaut miles runAvg speedWind from/ knotsBaromVisibWave heightAir tempDewpointWater temp
2017-Aug-17 01:30N 47°24' W 123°08'0 0.3
2017-Aug-17 01:01N 47°24' W 123°08'0 0.1
2017-Aug-17 00:30N 47°24' W 123°08'0 0.0
2017-Aug-16 23:59N 47°24' W 123°08'0 0.0
2017-Aug-16 23:30N 47°24' W 123°08'0 0.1
2017-Aug-16 22:59N 47°24' W 123°07'0 0.0
2017-Aug-16 22:30N 47°24' W 123°07'0 0.1
2017-Aug-16 22:00N 47°24' W 123°08'0 0.3
2017-Aug-16 21:30N 47°24' W 123°07'1 1.1
2017-Aug-16 21:00N 47°25' W 123°07'4 8.5
2017-Aug-16 20:31N 47°29' W 123°04'4 8.4
2017-Aug-16 20:01N 47°32' W 123°01'4 8.5
2017-Aug-16 19:31N 47°36' W 122°57'4 8.8
2017-Aug-16 19:01N 47°40' W 122°54'1 1.4
2017-Aug-16 18:30N 47°40' W 122°55'0 0.0
2017-Aug-16 18:00N 47°40' W 122°55'0 0.0
2017-Aug-16 17:30N 47°40' W 122°55'2 4.3
2017-Aug-16 17:01N 47°38' W 122°53'0 0.3
2017-Aug-16 16:30N 47°38' W 122°53'0 0.5
2017-Aug-16 16:00N 47°38' W 122°53'0 0.5
2017-Aug-16 15:30N 47°38' W 122°54'0 0.3
2017-Aug-16 15:01N 47°38' W 122°54'1 0.1
2017-Aug-15 20:14N 47°40' W 122°55'0 0.0
2017-Aug-15 19:53N 47°40' W 122°55'1 3.5
2017-Aug-15 19:30N 47°40' W 122°53'4 8.6
2017-Aug-15 19:00N 47°41' W 122°47'6 8.8
2017-Aug-15 18:22N 47°46' W 122°44'3 9.2
2017-Aug-15 18:00N 47°49' W 122°40'5 8.8
2017-Aug-15 17:26N 47°53' W 122°36'4 8.4
2017-Aug-15 16:59N 47°57' W 122°37'3 6.7
2017-Aug-15 16:30N 47°57' W 122°32'4 7.6
2017-Aug-15 16:00N 47°55' W 122°28'4 8.0
2017-Aug-15 15:30N 47°51' W 122°26'4 8.7
2017-Aug-15 15:00N 47°47' W 122°25'4 8.5
2017-Aug-15 14:30N 47°42' W 122°25'3 5.4
2017-Aug-15 14:00N 47°40' W 122°24'3 5.8
2017-Aug-15 13:30N 47°39' W 122°20'1 1.3
2017-Aug-15 13:00N 47°39' W 122°19'  
2017-Aug-11 08:35N 47°39' W 122°19'0 0.5
2017-Aug-11 08:30N 47°39' W 122°19'1 2.7
2017-Aug-11 08:00N 47°39' W 122°21'2 4.4
2017-Aug-11 07:31N 47°40' W 122°24'3 6.9
2017-Aug-11 07:00N 47°43' W 122°25'4 8.2
2017-Aug-11 06:30N 47°47' W 122°26'4 8.4
2017-Aug-11 06:00N 47°52' W 122°27'4 7.7
2017-Aug-11 05:30N 47°55' W 122°28'3 6.7
2017-Aug-11 05:00N 47°57' W 122°32'4 6.9
2017-Aug-11 04:29N 48°00' W 122°36'4 7.4
2017-Aug-11 03:58N 48°04' W 122°38'4 7.7
2017-Aug-11 03:30N 48°07' W 122°39'2 4.8
2017-Aug-11 03:00N 48°09' W 122°41'1 0.4
2017-Aug-11 01:37N 48°09' W 122°41'3 8.3
2017-Aug-11 01:18N 48°07' W 122°38'5 6.6
2017-Aug-11 00:32N 48°02' W 122°37'2 7.8
2017-Aug-11 00:17N 48°00' W 122°35'2 5.3
2017-Aug-10 23:58N 47°59' W 122°34'3 7.3
2017-Aug-10 23:30N 47°57' W 122°30'4 7.5
2017-Aug-10 23:00N 47°53' W 122°27'4 8.4
2017-Aug-10 22:30N 47°49' W 122°26'4 8.6
2017-Aug-10 22:00N 47°45' W 122°25'4 8.5
2017-Aug-10 21:30N 47°41' W 122°25'1 2.3
2017-Aug-10 21:00N 47°40' W 122°24'1 1.3
2017-Aug-10 20:30N 47°40' W 122°23'2 4.9
2017-Aug-10 20:00N 47°39' W 122°19'  
Track history (hours):
 
Tides and Currents Weather Stations Pressure Air Temp Water Temp Dewpoint Dewpoint Depression Visibility Wind Speed Wind Dir Waves Ship Positions

Oceanographic research ship Jack Robertson (United States)

Owner: University of Washington Applied Physics Laboratory, Seattle, WA. More information available from US FCC via Universal Licensing System and Coast Guard Vessel Documentation Center.

Last reported at 2017-Aug-17 01:30 UTC. Time now 2017-Aug-17 01:38 UTC.
Position N 47°24' W 123°08'.

; draft 1.7 m.

Type: Other ship. MMSI: 367374350.

Date/timePositionNaut miles runAvg speedWind from/ knotsBaromVisibWave heightAir tempDewpointWater temp
2017-Aug-17 01:30N 47°24' W 123°08'0 0.3
2017-Aug-17 01:01N 47°24' W 123°08'0 0.1
2017-Aug-17 00:30N 47°24' W 123°08'0 0.0
2017-Aug-16 23:59N 47°24' W 123°08'0 0.0
2017-Aug-16 23:30N 47°24' W 123°08'0 0.1
2017-Aug-16 22:59N 47°24' W 123°07'0 0.0
2017-Aug-16 22:30N 47°24' W 123°07'0 0.1
2017-Aug-16 22:00N 47°24' W 123°08'0 0.3
2017-Aug-16 21:30N 47°24' W 123°07'1 1.1
2017-Aug-16 21:00N 47°25' W 123°07'4 8.5
2017-Aug-16 20:31N 47°29' W 123°04'4 8.4
2017-Aug-16 20:01N 47°32' W 123°01'4 8.5
2017-Aug-16 19:31N 47°36' W 122°57'4 8.8
2017-Aug-16 19:01N 47°40' W 122°54'1 1.4
2017-Aug-16 18:30N 47°40' W 122°55'0 0.0
2017-Aug-16 18:00N 47°40' W 122°55'0 0.0
2017-Aug-16 17:30N 47°40' W 122°55'2 4.3
2017-Aug-16 17:01N 47°38' W 122°53'0 0.3
2017-Aug-16 16:30N 47°38' W 122°53'0 0.5
2017-Aug-16 16:00N 47°38' W 122°53'0 0.5
2017-Aug-16 15:30N 47°38' W 122°54'0 0.3
2017-Aug-16 15:01N 47°38' W 122°54'1 0.1
2017-Aug-15 20:14N 47°40' W 122°55'0 0.0
2017-Aug-15 19:53N 47°40' W 122°55'1 3.5
2017-Aug-15 19:30N 47°40' W 122°53'4 8.6
2017-Aug-15 19:00N 47°41' W 122°47'6 8.8
2017-Aug-15 18:22N 47°46' W 122°44'3 9.2
2017-Aug-15 18:00N 47°49' W 122°40'5 8.8
2017-Aug-15 17:26N 47°53' W 122°36'4 8.4
2017-Aug-15 16:59N 47°57' W 122°37'3 6.7
2017-Aug-15 16:30N 47°57' W 122°32'4 7.6
2017-Aug-15 16:00N 47°55' W 122°28'4 8.0
2017-Aug-15 15:30N 47°51' W 122°26'4 8.7
2017-Aug-15 15:00N 47°47' W 122°25'4 8.5
2017-Aug-15 14:30N 47°42' W 122°25'3 5.4
2017-Aug-15 14:00N 47°40' W 122°24'3 5.8
2017-Aug-15 13:30N 47°39' W 122°20'1 1.3
2017-Aug-15 13:00N 47°39' W 122°19'  
2017-Aug-11 08:35N 47°39' W 122°19'0 0.5
2017-Aug-11 08:30N 47°39' W 122°19'1 2.7
2017-Aug-11 08:00N 47°39' W 122°21'2 4.4
2017-Aug-11 07:31N 47°40' W 122°24'3 6.9
2017-Aug-11 07:00N 47°43' W 122°25'4 8.2
2017-Aug-11 06:30N 47°47' W 122°26'4 8.4
2017-Aug-11 06:00N 47°52' W 122°27'4 7.7
2017-Aug-11 05:30N 47°55' W 122°28'3 6.7
2017-Aug-11 05:00N 47°57' W 122°32'4 6.9
2017-Aug-11 04:29N 48°00' W 122°36'4 7.4
2017-Aug-11 03:58N 48°04' W 122°38'4 7.7
2017-Aug-11 03:30N 48°07' W 122°39'2 4.8
2017-Aug-11 03:00N 48°09' W 122°41'1 0.4
2017-Aug-11 01:37N 48°09' W 122°41'3 8.3
2017-Aug-11 01:18N 48°07' W 122°38'5 6.6
2017-Aug-11 00:32N 48°02' W 122°37'2 7.8
2017-Aug-11 00:17N 48°00' W 122°35'2 5.3
2017-Aug-10 23:58N 47°59' W 122°34'3 7.3
2017-Aug-10 23:30N 47°57' W 122°30'4 7.5
2017-Aug-10 23:00N 47°53' W 122°27'4 8.4
2017-Aug-10 22:30N 47°49' W 122°26'4 8.6
2017-Aug-10 22:00N 47°45' W 122°25'4 8.5
2017-Aug-10 21:30N 47°41' W 122°25'1 2.3
2017-Aug-10 21:00N 47°40' W 122°24'1 1.3
2017-Aug-10 20:30N 47°40' W 122°23'2 4.9
2017-Aug-10 20:00N 47°39' W 122°19'  

Dump ship's entire track history